Hollister, Florida
Current Conditions -  °F | °C
As of 5:35 PM on Sunday 23 Nov 2014 (Local Time) from K28J Reporting Station
Light Rain Light Rain  
Wind Chill: 75°   Ceiling: 3400
Heat Index: 75°   Visibility: 5mi
Dew Point: 75°   Wind: 5mph
Humidity: 100%   Direction: 210°SSW
Pressure: 29.88"   Gusts: NA
Location:  29.62°N, 81.81°W
Report Text: K28J 232235Z AUTO 21004KT 5SM -RA FEW006 BKN034 OVC055 24/24 A2988 RMK AO2 P0002
Loading
Personal Weather Stations






























Interactive Weather Map New forecast layout! Learn more

10-Day Weather Forecast

Advertisements
Track Severe Weather on mobile